Wednesday, April 16, 2014, 1:16 AM EDT

KFYJ, West Point, Middle Peninsula Regional Airport

Location: Shacklefords, VA, United States Lat: 37.521
Local Time: 1:16 AM EDT ( 5:16 GMT) Lon: -76.764
Time Zone: US/Eastern Elev: 22 ft

Show me the last for .
Show Decoded

2014-04-16 00:55 METAR KFYJ 160455Z AUTO 33010G19KT 10SM SCT120 05/00 A3004 RMK AO2 T00470001 =
2014-04-16 00:35 METAR KFYJ 160435Z AUTO 32007G20KT 300V010 10SM SCT090 BKN110 05/02 A3004 RMK
                 AO2 T00450019 =
2014-04-16 00:15 METAR KFYJ 160415Z AUTO 33004KT 10SM SCT011 OVC100 04/02 A3004 RMK AO2 T00420020
                 =
2014-04-15 23:55 METAR KFYJ 160355Z AUTO 34009G16KT 310V010 10SM SCT065 OVC085 04/02 A3004 RMK
                 AO2 P0010 T00410017 =
2014-04-15 23:35 METAR KFYJ 160335Z AUTO 35008G19KT 7SM SCT065 OVC085 04/02 A3002 RMK AO2 P0009
                 T00420018 =
2014-04-15 23:15 METAR KFYJ 160315Z AUTO 36013G19KT 320V020 7SM SCT012 BKN065 OVC085 04/02 A2999
                 RMK AO2 P0004 T00440022 =
2014-04-15 22:55 METAR KFYJ 160255Z AUTO 33013G24KT 5SM SCT013 BKN039 OVC085 05/03 A2999 RMK AO2
                 P0016 60054 T00500029 =
2014-04-15 22:35 METAR KFYJ 160235Z AUTO 32012G21KT 290V350 5SM SCT016 SCT023 OVC070 05/03 A2999
                 RMK AO2 P0010 T00520033 =
2014-04-15 22:15 METAR KFYJ 160215Z AUTO 33010G22KT 290V350 5SM SCT015 BKN060 OVC070 06/04 A2997
                 RMK AO2 P0005 T00550035 =
2014-04-15 21:55 METAR KFYJ 160155Z AUTO 34015G28KT 280V020 5SM SCT034 BKN070 OVC080 06/04 A2996
                 RMK AO2 P0015 T00570040 =
2014-04-15 21:35 METAR KFYJ 160135Z AUTO 35011G24KT 310V030 5SM SCT029 BKN037 OVC070 06/04 A2992
                 RMK AO2 P0010 T00610044 =
2014-04-15 21:15 METAR KFYJ 160115Z AUTO 33013G23KT 4SM SCT015 BKN027 OVC032 06/04 A2991 RMK AO2
                 P0005 T00620043 =
2014-04-15 20:55 METAR KFYJ 160055Z AUTO 36013G20KT 320V030 5SM BKN014 BKN024 OVC035 07/05 A2988
                 RMK AO2 P0022 T00680050 =
2014-04-15 20:35 METAR KFYJ 160035Z AUTO 36012G18KT 320V030 4SM SCT014 BKN019 OVC055 08/05 A2986
                 RMK AO2 P0013 T00750051 =
2014-04-15 20:15 METAR KFYJ 160015Z AUTO 35016G27KT 310V010 7SM SCT016 SCT040 OVC055 08/05 A2983
                 RMK AO2 P0004 T00760051 =
2014-04-15 19:55 METAR KFYJ 152355Z AUTO 35010G24KT 330V030 4SM SCT012 BKN026 OVC065 08/06 A2981
                 RMK AO2 P0019 60110 T00800057 10233 20080 =
2014-04-15 19:35 METAR KFYJ 152335Z AUTO 32011G21KT 2 1/2SM SCT014 BKN026 OVC043 08/06 A2979 RMK
                 AO2 P0010 T00820060 =
2014-04-15 19:15 METAR KFYJ 152315Z AUTO 33013G30KT 300V360 4SM SCT015 BKN026 OVC042 09/06 A2979
                 RMK AO2 P0002 T00880061 =
2014-04-15 18:55 METAR KFYJ 152255Z AUTO 32011G21KT 300V020 3SM BKN016 BKN030 OVC035 09/07 A2978
                 RMK AO2 P0033 T00920069 =
2014-04-15 18:35 METAR KFYJ 152235Z AUTO 34018G28KT 5SM SCT012 OVC030 10/08 A2973 RMK AO2 P0026
                 T00960075 =
2014-04-15 18:15 METAR KFYJ 152215Z AUTO 36013G26KT 1SM BKN009 OVC014 10/08 A2969 RMK AO2 P0019
                 T01030082 =
2014-04-15 17:55 METAR KFYJ 152155Z AUTO 36017G30KT 330V040 1/4SM BKN009 OVC014 15/11 A2965 RMK
                 AO2 P0050 T01460111 =
2014-04-15 17:35 METAR KFYJ 152135Z AUTO 20007KT 1 1/4SM SCT016 BKN032 OVC037 20/18 A2961 RMK AO2
                 P0019 T02020176 =
2014-04-15 17:15 METAR KFYJ 152115Z AUTO 21007KT 3SM SCT022 BKN044 OVC050 21/17 A2960 RMK AO2
                 P0005 T02080171 =
2014-04-15 16:55 METAR KFYJ 152055Z AUTO 21009G15KT 3SM SCT021 SCT029 OVC050 22/17 A2961 RMK AO2
                 P0004 60004 T02220167 =
2014-04-15 16:35 METAR KFYJ 152035Z AUTO 21008G16KT 10SM BKN065 BKN090 BKN110 23/16 A2961 RMK AO2
                 T02310162 =
2014-04-15 16:15 METAR KFYJ 152015Z AUTO 20008KT 10SM SCT075 BKN085 BKN110 23/16 A2960 RMK AO2
                 T02320159 =
2014-04-15 15:55 METAR KFYJ 151955Z AUTO 18009G15KT 10SM OVC075 23/16 A2961 RMK AO2 T02300156 =
2014-04-15 15:35 METAR KFYJ 151935Z AUTO 18009KT 10SM OVC075 23/16 A2963 RMK AO2 T02320155 =
2014-04-15 15:15 METAR KFYJ 151915Z AUTO 20013G18KT 10SM BKN075 23/16 A2964 RMK AO2 T02320156 =
2014-04-15 14:55 METAR KFYJ 151855Z AUTO 20010G15KT 10SM CLR 23/16 A2964 RMK AO2 T02300158 =
2014-04-15 14:35 METAR KFYJ 151835Z AUTO 19011G17KT 10SM SCT050 23/16 A2965 RMK AO2 T02300160 =
2014-04-15 14:15 METAR KFYJ 151815Z AUTO 19012G19KT 10SM SCT040 SCT050 SCT090 23/17 A2966 RMK AO2
                 T02280165 =
2014-04-15 13:55 METAR KFYJ 151755Z AUTO 17011G23KT 10SM SCT070 SCT080 23/17 A2965 RMK AO2 60025
                 T02260165 10226 20211 =
2014-04-15 13:35 METAR KFYJ 151735Z AUTO 18010KT 10SM BKN070 OVC080 22/17 A2965 RMK AO2 T02220165
                 =
2014-04-15 13:15 METAR KFYJ 151715Z AUTO 19008KT 10SM BKN070 OVC080 22/17 A2967 RMK AO2 T02210165
                 =
2014-04-15 12:55 METAR KFYJ 151655Z AUTO 19008G16KT 10SM BKN080 22/17 A2968 RMK AO2 T02230168 =
2014-04-15 12:35 METAR KFYJ 151635Z AUTO 17009G15KT 10SM CLR 22/17 A2968 RMK AO2 T02210172 =
2014-04-15 12:15 METAR KFYJ 151615Z AUTO 16011KT 10SM CLR 22/18 A2967 RMK AO2 T02200180 =
2014-04-15 11:55 METAR KFYJ 151555Z AUTO 17010KT 10SM CLR 21/18 A2968 RMK AO2 T02130180 =
2014-04-15 11:35 METAR KFYJ 151535Z AUTO 16012G23KT 10SM SCT120 22/18 A2966 RMK AO2 T02150183 =
2014-04-15 11:15 METAR KFYJ 151515Z AUTO 16013KT 10SM SCT037 SCT050 BKN120 22/19 A2968 RMK AO2
                 T02150186 =
2014-04-15 10:55 METAR KFYJ 151455Z AUTO 16012G20KT 10SM SCT027 BKN049 OVC060 22/19 A2967 RMK AO2
                 P0003 60025 T02150188 =
2014-04-15 10:35 METAR KFYJ 151435Z AUTO 17013G20KT 10SM SCT030 SCT045 OVC050 22/19 A2969 RMK AO2
                 P0002 T02150187 =
2014-04-15 10:15 METAR KFYJ 151415Z AUTO 17012G19KT 7SM SCT034 BKN050 OVC060 22/19 A2969 RMK AO2
                 P0001 T02170191 =
2014-04-15 09:55 METAR KFYJ 151355Z AUTO 18013G22KT 7SM SCT024 BKN046 OVC060 22/19 A2970 RMK AO2
                 P0014 T02170190 =
2014-04-15 09:35 METAR KFYJ 151335Z AUTO 17013G20KT 3SM SCT017 BKN026 OVC050 22/19 A2970 RMK AO2
                 P0011 T02150192 =
2014-04-15 09:15 METAR KFYJ 151315Z AUTO 17010KT 5SM SCT019 BKN040 OVC047 22/19 A2970 RMK AO2
                 P0004 T02160191 =
2014-04-15 08:55 METAR KFYJ 151255Z AUTO 18014G21KT 2 1/2SM BKN019 OVC025 22/19 A2970 RMK AO2
                 P0008 T02180186 =
2014-04-15 08:35 METAR KFYJ 151235Z AUTO 16012G18KT 5SM SCT022 BKN028 OVC034 22/18 A2971 RMK AO2
                 T02200183 =
2014-04-15 08:15 METAR KFYJ 151215Z AUTO 16012G16KT 10SM SCT019 BKN031 OVC038 22/18 A2971 RMK AO2
                 T02200181 =
2014-04-15 07:55 METAR KFYJ 151155Z AUTO 16012KT 10SM BKN021 BKN027 OVC036 22/18 A2972 RMK AO2
                 T02200180 10221 20215 =
2014-04-15 07:35 METAR KFYJ 151135Z AUTO 16009G14KT 10SM BKN019 BKN027 OVC038 22/18 A2972 RMK AO2
                 T02200177 =
2014-04-15 07:15 METAR KFYJ 151115Z AUTO 16010KT 10SM BKN019 BKN023 OVC032 22/18 A2973 RMK AO2
                 T02200176 =
2014-04-15 06:55 METAR KFYJ 151055Z AUTO 16012G15KT 10SM SCT017 BKN023 BKN031 22/18 A2973 RMK AO2
                 T02200175 =
2014-04-15 06:35 METAR KFYJ 151035Z AUTO 16009G15KT 10SM SCT020 SCT090 22/18 A2973 RMK AO2
                 T02180175 =
2014-04-15 06:15 METAR KFYJ 151015Z AUTO 16010G15KT 10SM SCT018 SCT025 BKN090 22/18 A2973 RMK AO2
                 T02200175 =
2014-04-15 05:55 METAR KFYJ 150955Z AUTO 16011G15KT 10SM SCT017 BKN100 OVC120 22/17 A2975 RMK AO2
                 T02200174 =
2014-04-15 05:35 METAR KFYJ 150935Z AUTO 17009G14KT 10SM SCT020 SCT027 OVC042 22/17 A2975 RMK AO2
                 T02200173 =
2014-04-15 05:15 METAR KFYJ 150915Z AUTO 17009KT 10SM SCT020 BKN039 OVC045 22/18 A2975 RMK AO2
                 T02180175 =
2014-04-15 04:55 METAR KFYJ 150855Z AUTO 17009KT 10SM BKN038 22/17 A2977 RMK AO2 T02160173 =
2014-04-15 04:35 METAR KFYJ 150835Z AUTO 17010G16KT 10SM SCT018 BKN036 22/17 A2977 RMK AO2
                 T02170172 =
2014-04-15 04:15 METAR KFYJ 150815Z AUTO 16010G15KT 10SM SCT019 SCT027 OVC034 22/17 A2978 RMK AO2
                 T02170174 =
2014-04-15 03:55 METAR KFYJ 150755Z AUTO 16010KT 10SM SCT021 BKN030 OVC034 22/17 A2978 RMK AO2
                 T02170172 =
2014-04-15 03:35 METAR KFYJ 150735Z AUTO 16010G14KT 10SM SCT021 SCT029 22/17 A2979 RMK AO2
                 T02150171 =
2014-04-15 03:15 METAR KFYJ 150715Z AUTO 16007KT 10SM SCT019 BKN029 BKN035 22/17 A2980 RMK AO2
                 T02160170 =
2014-04-15 02:55 METAR KFYJ 150655Z AUTO 16009KT 10SM SCT021 BKN029 OVC036 22/17 A2981 RMK AO2
                 T02180170 =
2014-04-15 02:35 METAR KFYJ 150635Z AUTO 17009KT 10SM SCT020 BKN026 OVC043 22/17 A2982 RMK AO2
                 T02200170 =
2014-04-15 02:15 METAR KFYJ 150615Z AUTO 17008G14KT 10SM SCT020 BKN025 BKN035 22/17 A2983 RMK AO2
                 T02210167 =
2014-04-15 01:55 METAR KFYJ 150555Z AUTO 17010G14KT 10SM BKN025 BKN030 BKN038 22/17 A2983 RMK AO2
                 T02210165 10247 20220 402700187 =
2014-04-15 01:35 METAR KFYJ 150535Z AUTO 16008KT 10SM BKN025 BKN031 22/16 A2984 RMK AO2 T02200162
                 =

Support USWX by starting your Amazon purchase here.